Impacts TAF Board INFO
FOR SITUATIONAL AWARENESS. NOT TO BE USED FOR FLIGHT PLANNING PURPOSES.
IDs:

KDTW - Detroit Metro/Wayne, MI, US

Issued at 1503 UTC 20 Jan 2018
Updated at 1708 UTC 20 Jan 2018
Potential Impact None Slight Moderate High
Time1653Z 20/18Z 20/19Z 20/20Z 20/21Z 20/22Z 20/23Z 21/00Z 21/01Z 21/02Z 21/03Z 21/04Z 21/05Z 21/06Z>>
Type OBS PRVL PRVL PRVL PRVL PRVL PRVL PRVL PRVL PRVL PRVL PRVL PRVL PRVL
VIS 10 >6 >6 >6 >6 >6 >6 5 5 5 5 5 5 5
CIG 240 200 200 200 200 200 200 20 20 20 20 20 20 20
Cover BKN BKN BKN BKN BKN BKN BKN OVC OVC OVC OVC OVC OVC OVC
FltCat VFR VFR VFR VFR VFR VFR VFR MVFR MVFR MVFR MVFR MVFR MVFR MVFR
WX -- -- -- -- -- -- -- BR BR BR BR BR BR BR
WDir 240 230 230 230 230 230 230 230 230 230 230 230 230 230
WSpd 12 13 13 13 13 13 13 7 7 7 7 7 7 7
WGst -- -- -- -- -- -- -- -- -- -- -- -- -- --

Raw TAF
KDTW 201503Z 2015/2118 23013KT P6SM BKN200
  FM210000 23007KT 5SM BR OVC020
  FM211000 20005KT 4SM BR OVC010


Raw METAR
KDTW 201653Z 24012KT 10SM FEW180 BKN240 04/M02 A2995 RMK AO2 SLP145 T00441022 $
KDTW 201553Z 23014KT 10SM BKN240 03/M03 A2994 RMK AO2 SLP146 T00281033 $
KDTW 201453Z 23013KT 10SM FEW180 BKN240 02/M03 A2994 RMK AO2 SLP143 T00221033 51024 $

METAR Board
Radar Display
Forecast Discussion

FOR SITUATIONAL AWARENESS. NOT TO BE USED FOR FLIGHT PLANNING PURPOSES.